Groton, Vermont
Current Conditions -  °F | °C
As of 9:06 PM on Monday 22 Dec 2014 (Local Time) from KMPV Reporting Station
Light Snow Light Snow  
Wind Chill: 26°   Ceiling: 1600
Heat Index: 31°   Visibility: 5mi
Dew Point: 29°   Wind: 5mph
Humidity: 92%   Direction: 210°SSW
Pressure: 30.31"   Gusts: NA
Location:  44.21°N, 72.2°W
Report Text: KMPV 230206Z AUTO 21004KT 5SM -SN BR BKN016 OVC027 M01/M02 A3031 RMK AO2 P0000 T10061017
Loading
Personal Weather Stations






























Interactive Weather Map New forecast layout! Learn more

10-Day Weather Forecast

Advertisements
Track Severe Weather on mobile